createdAt,value
2018-04-14T00:00:29.747Z,21.79
2018-04-14T00:01:29.709Z,21.70
2018-04-14T00:02:29.677Z,21.72
2018-04-14T00:03:29.656Z,21.75
2018-04-14T00:04:29.592Z,21.66
2018-04-14T00:05:29.549Z,21.76
2018-04-14T00:06:29.506Z,21.72
2018-04-14T00:07:29.474Z,21.70
2018-04-14T00:08:29.466Z,21.72
2018-04-14T00:09:29.430Z,21.70
2018-04-14T00:10:29.351Z,21.72
2018-04-14T00:11:29.315Z,21.69
2018-04-14T00:12:29.278Z,21.72
2018-04-14T00:13:29.238Z,21.72
2018-04-14T00:14:29.230Z,21.67
2018-04-14T00:15:29.155Z,21.66
2018-04-14T00:16:29.145Z,21.64
2018-04-14T00:17:29.073Z,21.69
2018-04-14T00:18:29.036Z,21.73
2018-04-14T00:19:29.033Z,21.72
2018-04-14T00:20:28.956Z,21.67
2018-04-14T00:21:28.956Z,21.67
2018-04-14T00:22:28.880Z,21.70
2018-04-14T00:23:28.842Z,21.69
2018-04-14T00:24:28.805Z,21.64
2018-04-14T00:25:28.758Z,21.58
2018-04-14T00:26:28.751Z,21.62
2018-04-14T00:27:28.678Z,21.62
2018-04-14T00:28:28.670Z,21.61
2018-04-14T00:29:28.598Z,21.55
2018-04-14T00:30:28.559Z,21.58
2018-04-14T00:31:28.521Z,21.57
2018-04-14T00:32:28.514Z,21.57
2018-04-14T00:33:28.476Z,21.58
2018-04-14T00:34:28.403Z,21.54
2018-04-14T00:35:28.396Z,21.64
2018-04-14T00:36:28.322Z,21.64
2018-04-14T00:37:28.280Z,21.66
2018-04-14T00:38:28.240Z,21.69
2018-04-14T00:39:28.242Z,21.54
2018-04-14T00:40:28.162Z,21.69
2018-04-14T00:41:28.124Z,21.69
2018-04-14T00:42:28.084Z,21.64
2018-04-14T00:43:28.048Z,21.64
2018-04-14T00:44:28.047Z,21.57
2018-04-14T00:45:27.968Z,21.60
2018-04-14T00:46:27.923Z,21.58
2018-04-14T00:47:27.884Z,21.55
2018-04-14T00:48:27.851Z,21.55
2018-04-14T00:49:27.848Z,21.58
2018-04-14T00:50:27.798Z,21.54
2018-04-14T00:51:27.726Z,21.57
2018-04-14T00:52:27.690Z,21.54
2018-04-14T00:53:27.649Z,21.60
2018-04-14T00:54:27.609Z,21.46
2018-04-14T00:55:27.611Z,21.50
2018-04-14T00:56:27.529Z,21.58
2018-04-14T00:57:27.528Z,21.55
2018-04-14T00:58:27.453Z,21.60
2018-04-14T00:59:27.413Z,21.45
2018-04-14T01:00:27.375Z,21.48
2018-04-14T01:01:27.337Z,21.48
2018-04-14T01:02:27.335Z,21.52
2018-04-14T01:03:27.252Z,21.43
2018-04-14T01:04:27.215Z,21.52
2018-04-14T01:05:27.183Z,21.46
2018-04-14T01:06:27.177Z,21.39
2018-04-14T01:07:27.095Z,21.37
2018-04-14T01:08:27.092Z,21.43
2018-04-14T01:09:27.017Z,21.45
2018-04-14T01:10:26.975Z,21.46
2018-04-14T01:11:26.972Z,21.45
2018-04-14T01:12:26.902Z,21.43
2018-04-14T01:13:26.899Z,21.46
2018-04-14T01:14:26.817Z,21.37
2018-04-14T01:15:26.784Z,21.33
2018-04-14T01:16:26.833Z,21.42
2018-04-14T01:17:26.701Z,21.36
2018-04-14T01:18:26.695Z,21.40
2018-04-14T01:19:26.625Z,21.36
2018-04-14T01:20:26.583Z,21.37
2018-04-14T01:21:26.582Z,21.36
2018-04-14T01:22:26.504Z,21.32
2018-04-14T01:23:26.463Z,21.35
2018-04-14T01:24:26.427Z,21.30
2018-04-14T01:25:26.385Z,21.35
2018-04-14T01:26:26.381Z,21.36
2018-04-14T01:27:26.303Z,21.36
2018-04-14T01:28:26.270Z,21.36
2018-04-14T01:29:26.229Z,21.39
2018-04-14T01:30:26.219Z,21.40
2018-04-14T01:31:26.147Z,21.33
2018-04-14T01:32:26.129Z,21.30
2018-04-14T01:33:26.109Z,21.27
2018-04-14T01:34:26.029Z,21.32
2018-04-14T01:35:25.987Z,21.29
2018-04-14T01:36:25.949Z,21.27
2018-04-14T01:37:25.906Z,21.30
2018-04-14T01:38:25.901Z,21.32
2018-04-14T01:39:25.870Z,21.27
2018-04-14T01:40:25.796Z,21.24
2018-04-14T01:41:25.757Z,21.29
2018-04-14T01:42:25.711Z,21.18
2018-04-14T01:43:25.670Z,21.24
2018-04-14T01:44:25.665Z,21.22
2018-04-14T01:45:25.599Z,21.18
2018-04-14T01:46:25.552Z,21.17
2018-04-14T01:47:25.543Z,21.17
2018-04-14T01:48:25.471Z,21.14
2018-04-14T01:49:25.438Z,21.12
2018-04-14T01:50:25.428Z,21.18
2018-04-14T01:51:25.386Z,21.20
2018-04-14T01:52:25.350Z,21.20
2018-04-14T01:53:25.270Z,21.20
2018-04-14T01:54:25.232Z,21.20
2018-04-14T01:55:25.212Z,21.14
2018-04-14T01:56:25.152Z,21.20
2018-04-14T01:57:25.144Z,21.17
2018-04-14T01:58:25.073Z,21.12
2018-04-14T01:59:25.064Z,21.06
2018-04-14T02:00:24.994Z,21.09
2018-04-14T02:01:24.984Z,21.14
2018-04-14T02:02:24.910Z,21.11
2018-04-14T02:03:24.876Z,21.11
2018-04-14T02:04:24.867Z,21.14
2018-04-14T02:05:24.830Z,21.00
2018-04-14T02:06:24.757Z,21.06
2018-04-14T02:07:24.713Z,21.06
2018-04-14T02:08:24.677Z,21.05
2018-04-14T02:09:24.663Z,21.05
2018-04-14T02:10:24.624Z,21.05
2018-04-14T02:11:24.554Z,20.99
2018-04-14T02:12:24.518Z,21.06
2018-04-14T02:13:24.479Z,21.06
2018-04-14T02:14:24.437Z,21.03
2018-04-14T02:15:24.433Z,21.02
2018-04-14T02:16:24.386Z,21.03
2018-04-14T02:17:24.312Z,21.00
2018-04-14T02:18:24.277Z,21.03
2018-04-14T02:19:24.233Z,21.00
2018-04-14T02:20:24.226Z,21.00
2018-04-14T02:21:24.152Z,20.99
2018-04-14T02:22:24.116Z,20.99
2018-04-14T02:23:24.078Z,20.97
2018-04-14T02:24:24.042Z,20.90
2018-04-14T02:25:24.037Z,21.00
2018-04-14T02:26:23.961Z,20.92
2018-04-14T02:27:25.457Z,21.00
2018-04-14T02:28:23.882Z,20.93
2018-04-14T02:29:23.876Z,20.88
2018-04-14T02:30:23.843Z,20.90
2018-04-14T02:31:23.759Z,20.92
2018-04-14T02:32:23.716Z,20.88
2018-04-14T02:33:23.719Z,20.88
2018-04-14T02:34:23.641Z,20.87
2018-04-14T02:35:23.596Z,20.88
2018-04-14T02:36:23.553Z,20.90
2018-04-14T02:37:23.521Z,20.90
2018-04-14T02:38:23.507Z,20.87
2018-04-14T02:39:23.453Z,20.90
2018-04-14T02:40:23.398Z,20.85
2018-04-14T02:41:23.358Z,20.85
2018-04-14T02:42:23.358Z,20.87
2018-04-14T02:43:23.283Z,20.87
2018-04-14T02:44:23.237Z,20.90
2018-04-14T02:45:23.198Z,20.85
2018-04-14T02:46:23.155Z,20.87
2018-04-14T02:47:23.150Z,20.85
2018-04-14T02:48:23.080Z,20.84
2018-04-14T02:49:23.036Z,20.81
2018-04-14T02:50:22.997Z,20.85
2018-04-14T02:51:22.990Z,20.85
2018-04-14T02:52:22.914Z,20.84
2018-04-14T02:53:22.876Z,20.84
2018-04-14T02:54:22.837Z,20.84
2018-04-14T02:55:22.797Z,20.69
2018-04-14T02:56:22.789Z,20.69
2018-04-14T02:57:22.733Z,20.81
2018-04-14T02:58:22.710Z,20.80
2018-04-14T02:59:22.641Z,20.72
2018-04-14T03:00:22.633Z,20.75
2018-04-14T03:01:22.556Z,20.78
2018-04-14T03:02:22.518Z,20.77
2018-04-14T03:03:22.478Z,20.70
2018-04-14T03:04:22.469Z,20.69
2018-04-14T03:05:22.393Z,20.69
2018-04-14T03:06:22.357Z,20.69
2018-04-14T03:07:22.347Z,20.74
2018-04-14T03:08:22.284Z,20.74
2018-04-14T03:09:22.238Z,20.70
2018-04-14T03:10:22.246Z,20.66
2018-04-14T03:11:22.154Z,20.69
2018-04-14T03:12:22.169Z,20.75
2018-04-14T03:13:22.074Z,20.55
2018-04-14T03:14:22.036Z,20.58
2018-04-14T03:15:21.995Z,20.59
2018-04-14T03:16:21.957Z,20.59
2018-04-14T03:17:22.009Z,20.55
2018-04-14T03:18:21.871Z,20.65
2018-04-14T03:19:21.835Z,20.62
2018-04-14T03:20:21.792Z,20.65
2018-04-14T03:21:21.754Z,20.66
2018-04-14T03:22:21.754Z,20.59
2018-04-14T03:23:21.712Z,20.60
2018-04-14T03:24:21.632Z,20.60
2018-04-14T03:25:21.590Z,20.58
2018-04-14T03:26:21.552Z,20.62
2018-04-14T03:27:21.514Z,20.58
2018-04-14T03:28:21.506Z,20.60
2018-04-14T03:29:21.434Z,20.63
2018-04-14T03:30:21.424Z,20.50
2018-04-14T03:31:21.352Z,20.51
2018-04-14T03:32:21.313Z,20.60
2018-04-14T03:33:21.271Z,20.58
2018-04-14T03:34:21.232Z,20.47
2018-04-14T03:35:21.216Z,20.58
2018-04-14T03:36:21.148Z,20.56
2018-04-14T03:37:21.107Z,20.58
2018-04-14T03:38:21.067Z,20.51
2018-04-14T03:39:26.018Z,20.58
2018-04-14T03:40:21.016Z,20.55
2018-04-14T03:41:20.948Z,20.48
2018-04-14T03:42:20.906Z,20.52
2018-04-14T03:43:20.868Z,20.52
2018-04-14T03:44:20.825Z,20.40
2018-04-14T03:45:20.824Z,20.48
2018-04-14T03:46:20.750Z,20.55
2018-04-14T03:47:20.713Z,20.44
2018-04-14T03:48:20.673Z,20.44
2018-04-14T03:49:20.625Z,20.47
2018-04-14T03:50:20.634Z,20.47
2018-04-14T03:51:20.546Z,20.48
2018-04-14T03:52:20.508Z,20.44
2018-04-14T03:53:20.461Z,20.43
2018-04-14T03:54:20.428Z,20.48
2018-04-14T03:55:20.424Z,20.41
2018-04-14T03:56:20.348Z,20.51
2018-04-14T03:57:20.306Z,20.44
2018-04-14T03:58:20.268Z,20.47
2018-04-14T03:59:20.222Z,20.44
2018-04-14T04:00:20.216Z,20.43
2018-04-14T04:01:20.174Z,20.50
2018-04-14T04:02:20.104Z,20.40
2018-04-14T04:03:20.060Z,20.39
2018-04-14T04:04:20.032Z,20.44
2018-04-14T04:05:20.024Z,20.44
2018-04-14T04:06:19.939Z,20.36
2018-04-14T04:07:19.896Z,20.40
2018-04-14T04:08:19.858Z,20.39
2018-04-14T04:09:19.819Z,20.36
2018-04-14T04:10:19.806Z,20.43
2018-04-14T04:11:19.738Z,20.40
2018-04-14T04:12:19.741Z,20.36
2018-04-14T04:13:19.654Z,20.39
2018-04-14T04:14:19.618Z,20.39
2018-04-14T04:15:19.580Z,20.39
2018-04-14T04:16:19.536Z,20.41
2018-04-14T04:17:19.536Z,20.39
2018-04-14T04:18:19.459Z,20.37
2018-04-14T04:19:19.413Z,20.41
2018-04-14T04:20:19.382Z,20.37
2018-04-14T04:21:19.340Z,20.36
2018-04-14T04:22:19.319Z,20.39
2018-04-14T04:23:19.286Z,20.34
2018-04-14T04:24:19.213Z,20.40
2018-04-14T04:25:19.173Z,20.34
2018-04-14T04:26:19.133Z,20.32
2018-04-14T04:27:19.096Z,20.32
2018-04-14T04:28:19.088Z,20.41
2018-04-14T04:29:19.013Z,20.41
2018-04-14T04:30:18.973Z,20.47
2018-04-14T04:31:18.930Z,20.44
2018-04-14T04:32:18.927Z,20.58
2018-04-14T04:33:18.846Z,20.58
2018-04-14T04:34:18.808Z,20.69
2018-04-14T04:35:18.799Z,20.63
2018-04-14T04:36:18.766Z,20.62
2018-04-14T04:37:18.691Z,20.75
2018-04-14T04:38:18.649Z,20.82
2018-04-14T04:39:18.614Z,20.81
2018-04-14T04:40:18.572Z,20.90
2018-04-14T04:41:18.593Z,20.95
2018-04-14T04:42:18.490Z,21.03
2018-04-14T04:43:18.444Z,21.07
2018-04-14T04:44:18.407Z,21.09
2018-04-14T04:45:18.363Z,21.21
2018-04-14T04:46:18.366Z,21.20
2018-04-14T04:47:18.281Z,21.21
2018-04-14T04:48:18.246Z,21.27
2018-04-14T04:49:18.200Z,21.36
2018-04-14T04:50:18.159Z,21.40
2018-04-14T04:51:18.162Z,21.40
2018-04-14T04:52:18.083Z,21.40
2018-04-14T04:53:18.035Z,21.48
2018-04-14T04:54:17.994Z,21.57
2018-04-14T04:55:17.961Z,21.70
2018-04-14T04:56:17.950Z,21.67
2018-04-14T04:57:17.873Z,21.73
2018-04-14T04:58:17.866Z,21.70
2018-04-14T04:59:17.794Z,21.69
2018-04-14T05:00:17.755Z,21.77
2018-04-14T05:01:17.711Z,21.82
2018-04-14T05:02:17.694Z,21.91
2018-04-14T05:03:17.663Z,21.99
2018-04-14T05:04:17.586Z,22.11
2018-04-14T05:05:17.546Z,22.10
2018-04-14T05:06:17.507Z,22.08
2018-04-14T05:07:17.490Z,22.13
2018-04-14T05:08:17.428Z,22.11
2018-04-14T05:09:17.382Z,22.22
2018-04-14T05:10:17.346Z,22.22
2018-04-14T05:11:17.305Z,22.28
2018-04-14T05:12:17.350Z,22.35
2018-04-14T05:13:17.262Z,22.41
2018-04-14T05:14:17.215Z,22.41
2018-04-14T05:15:17.148Z,22.50
2018-04-14T05:16:17.098Z,22.43
2018-04-14T05:17:17.062Z,22.41
2018-04-14T05:18:17.030Z,22.47
2018-04-14T05:19:17.010Z,22.63
2018-04-14T05:20:16.940Z,22.57
2018-04-14T05:21:16.903Z,22.62
2018-04-14T05:22:16.859Z,22.68
2018-04-14T05:23:16.868Z,22.75
2018-04-14T05:24:16.802Z,22.72
2018-04-14T05:25:16.848Z,22.80
2018-04-14T05:26:16.748Z,22.78
2018-04-14T05:27:16.658Z,22.83
2018-04-14T05:28:16.626Z,22.81
2018-04-14T05:29:16.576Z,22.91
2018-04-14T05:30:16.621Z,22.90
2018-04-14T05:31:16.493Z,22.99
2018-04-14T05:32:16.457Z,22.98
2018-04-14T05:33:16.414Z,23.00
2018-04-14T05:34:16.409Z,22.98
2018-04-14T05:35:16.337Z,22.94
2018-04-14T05:36:16.300Z,22.99
2018-04-14T05:37:16.256Z,22.94
2018-04-14T05:38:16.215Z,23.09
2018-04-14T05:39:16.206Z,23.06
2018-04-14T05:40:16.133Z,23.08
2018-04-14T05:41:16.117Z,23.06
2018-04-14T05:42:16.052Z,23.06
2018-04-14T05:43:16.018Z,23.08
2018-04-14T05:44:15.982Z,23.08
2018-04-14T05:45:15.933Z,23.08
2018-04-14T05:46:15.949Z,23.03
2018-04-14T05:47:15.859Z,23.15
2018-04-14T05:48:15.815Z,23.08
2018-04-14T05:49:15.773Z,23.15
2018-04-14T05:50:15.731Z,23.09
2018-04-14T05:51:15.758Z,23.10
2018-04-14T05:52:15.750Z,23.18
2018-04-14T05:53:15.610Z,23.18
2018-04-14T05:54:15.578Z,23.08
2018-04-14T05:55:15.533Z,23.12
2018-04-14T05:56:15.519Z,23.12
2018-04-14T05:57:15.451Z,23.13
2018-04-14T05:58:15.412Z,23.15
2018-04-14T05:59:15.401Z,23.12
2018-04-14T06:00:15.387Z,23.24
2018-04-14T06:01:15.289Z,23.17
2018-04-14T06:02:15.248Z,23.13
2018-04-14T06:03:15.209Z,23.13
2018-04-14T06:04:15.202Z,23.18
2018-04-14T06:05:15.126Z,23.15
2018-04-14T06:06:15.086Z,23.13
2018-04-14T06:07:15.101Z,23.10
2018-04-14T06:08:15.010Z,23.13
2018-04-14T06:09:14.985Z,23.10
2018-04-14T06:10:14.924Z,23.15
2018-04-14T06:11:14.884Z,23.17
2018-04-14T06:12:14.879Z,23.12
2018-04-14T06:13:14.803Z,23.21
2018-04-14T06:14:14.763Z,23.34
2018-04-14T06:15:14.722Z,23.31
2018-04-14T06:16:14.727Z,23.18
2018-04-14T06:17:14.644Z,23.32
2018-04-14T06:18:14.599Z,23.25
2018-04-14T06:19:14.564Z,23.34
2018-04-14T06:20:14.580Z,23.31
2018-04-14T06:21:14.526Z,23.24
2018-04-14T06:22:14.520Z,23.32
2018-04-14T06:23:14.403Z,23.23
2018-04-14T06:24:14.364Z,23.34
2018-04-14T06:25:14.325Z,23.36
2018-04-14T06:26:14.317Z,23.34
2018-04-14T06:27:14.237Z,23.20
2018-04-14T06:28:14.199Z,23.32
2018-04-14T06:29:14.201Z,23.32
2018-04-14T06:30:14.119Z,23.32
2018-04-14T06:31:14.106Z,23.32
2018-04-14T06:32:14.050Z,23.34
2018-04-14T06:33:14.000Z,23.40
2018-04-14T06:34:13.961Z,23.34
2018-04-14T06:35:13.923Z,23.46
2018-04-14T06:36:13.915Z,23.48
2018-04-14T06:37:13.842Z,23.39
2018-04-14T06:38:13.802Z,23.46
2018-04-14T06:39:13.800Z,23.37
2018-04-14T06:40:13.730Z,23.37
2018-04-14T06:41:13.685Z,23.44
2018-04-14T06:42:13.646Z,23.36
2018-04-14T06:43:13.613Z,23.44
2018-04-14T06:44:13.604Z,23.43
2018-04-14T06:45:13.560Z,23.51
2018-04-14T06:46:13.537Z,23.48
2018-04-14T06:47:13.448Z,23.44
2018-04-14T06:48:13.411Z,23.56
2018-04-14T06:49:13.399Z,23.59
2018-04-14T06:50:13.362Z,23.62
2018-04-14T06:51:13.328Z,23.65
2018-04-14T06:52:13.247Z,23.61
2018-04-14T06:53:13.205Z,23.63
2018-04-14T06:54:13.211Z,23.69
2018-04-14T06:55:13.131Z,23.68
2018-04-14T06:56:13.126Z,23.61
2018-04-14T06:57:13.053Z,23.65
2018-04-14T06:58:13.009Z,23.65
2018-04-14T06:59:12.972Z,23.63
2018-04-14T07:00:12.932Z,23.63
2018-04-14T07:01:12.940Z,23.63
2018-04-14T07:02:12.858Z,23.68
2018-04-14T07:03:12.812Z,23.68
2018-04-14T07:04:12.774Z,23.63
2018-04-14T07:05:12.734Z,23.63
2018-04-14T07:06:12.831Z,23.73
2018-04-14T07:07:12.661Z,23.63
2018-04-14T07:08:12.623Z,23.69
2018-04-14T07:09:12.575Z,23.80
2018-04-14T07:10:12.537Z,23.80
2018-04-14T07:11:12.546Z,23.74
2018-04-14T07:12:12.460Z,23.77
2018-04-14T07:13:12.418Z,23.81
2018-04-14T07:14:12.383Z,23.81
2018-04-14T07:15:12.341Z,23.84
2018-04-14T07:16:12.335Z,23.87
2018-04-14T07:17:12.285Z,23.96
2018-04-14T07:18:12.231Z,23.77
2018-04-14T07:19:12.181Z,23.78
2018-04-14T07:20:12.143Z,23.87
2018-04-14T07:21:12.104Z,23.88
2018-04-14T07:22:12.096Z,23.91
2018-04-14T07:23:12.026Z,23.96
2018-04-14T07:24:11.986Z,24.03
2018-04-14T07:25:11.945Z,24.02
2018-04-14T07:26:11.943Z,23.96
2018-04-14T07:27:11.867Z,24.03
2018-04-14T07:28:11.828Z,24.05
2018-04-14T07:29:11.785Z,24.06
2018-04-14T07:30:11.747Z,24.08
2018-04-14T07:31:11.744Z,24.13
2018-04-14T07:32:11.667Z,24.10
2018-04-14T07:33:11.631Z,24.17
2018-04-14T07:34:11.635Z,24.17
2018-04-14T07:35:11.555Z,24.17
2018-04-14T07:36:11.509Z,24.20
2018-04-14T07:37:11.469Z,24.11
2018-04-14T07:38:11.430Z,24.14
2018-04-14T07:39:11.438Z,24.14
2018-04-14T07:40:11.354Z,24.30
2018-04-14T07:41:11.311Z,24.13
2018-04-14T07:42:11.269Z,23.88
2018-04-14T07:43:11.230Z,23.50
2018-04-14T07:44:11.222Z,23.27
2018-04-14T07:45:11.189Z,23.06
2018-04-14T07:46:11.109Z,23.00
2018-04-14T07:47:11.076Z,22.93
2018-04-14T07:48:11.037Z,22.90
2018-04-14T07:49:10.993Z,22.80
2018-04-14T07:50:10.987Z,22.73
2018-04-14T07:51:10.914Z,22.65
2018-04-14T07:52:10.879Z,22.68
2018-04-14T07:53:10.835Z,22.63
2018-04-14T07:54:10.793Z,22.63
2018-04-14T07:55:10.795Z,22.75
2018-04-14T07:56:10.718Z,22.84
2018-04-14T07:57:10.672Z,22.76
2018-04-14T07:58:10.630Z,22.72
2018-04-14T07:59:10.592Z,22.73
2018-04-14T08:00:10.591Z,22.75
2018-04-14T08:01:10.517Z,22.75
2018-04-14T08:02:10.476Z,22.73
2018-04-14T08:03:10.439Z,22.75
2018-04-14T08:04:10.395Z,22.72
2018-04-14T08:05:10.385Z,22.81
2018-04-14T08:06:10.324Z,22.81
2018-04-14T08:07:10.298Z,22.90
2018-04-14T08:08:10.226Z,22.80
2018-04-14T08:09:10.184Z,22.87
2018-04-14T08:10:10.145Z,22.87
2018-04-14T08:11:10.103Z,22.90
2018-04-14T08:12:10.097Z,22.94
2018-04-14T08:13:10.021Z,22.90
2018-04-14T08:14:10.026Z,22.85
2018-04-14T08:15:09.944Z,22.90
2018-04-14T08:16:09.900Z,22.91
2018-04-14T08:17:09.857Z,22.93
2018-04-14T08:18:09.820Z,22.87
2018-04-14T08:19:09.815Z,22.85
2018-04-14T08:20:09.735Z,22.98
2018-04-14T08:21:09.698Z,22.96
2018-04-14T08:22:09.656Z,22.98
2018-04-14T08:23:09.612Z,23.00
2018-04-14T08:24:09.606Z,22.94
2018-04-14T08:25:09.533Z,22.98
2018-04-14T08:26:09.488Z,22.96
2018-04-14T08:27:09.450Z,23.13
2018-04-14T08:28:09.435Z,23.17
2018-04-14T08:29:09.364Z,23.15
2018-04-14T08:30:09.330Z,23.10
2018-04-14T08:31:09.327Z,23.08
2018-04-14T08:32:09.249Z,23.06
2018-04-14T08:33:09.205Z,23.12
2018-04-14T08:34:09.162Z,23.03
2018-04-14T08:35:09.147Z,23.03
2018-04-14T08:36:09.081Z,23.06
2018-04-14T08:37:09.037Z,22.94
2018-04-14T08:38:08.998Z,22.87
2018-04-14T08:39:08.959Z,22.85
2018-04-14T08:40:08.949Z,22.85
2018-04-14T08:41:08.875Z,22.73
2018-04-14T08:42:08.874Z,22.69
2018-04-14T08:43:08.832Z,22.76
2018-04-14T08:44:08.751Z,22.80
2018-04-14T08:45:08.710Z,22.75
2018-04-14T08:46:08.673Z,22.78
2018-04-14T08:47:08.722Z,22.65
2018-04-14T08:48:08.589Z,22.51
2018-04-14T08:49:08.548Z,22.38
2018-04-14T08:50:08.506Z,22.39
2018-04-14T08:51:08.475Z,22.41
2018-04-14T08:52:08.455Z,22.47
2018-04-14T08:53:08.385Z,22.53
2018-04-14T08:54:08.338Z,22.54
2018-04-14T08:55:08.324Z,22.50
2018-04-14T08:56:08.259Z,22.53
2018-04-14T08:57:08.215Z,22.51
2018-04-14T08:58:08.175Z,22.57
2018-04-14T08:59:08.168Z,22.55
2018-04-14T09:00:08.096Z,22.66
2018-04-14T09:01:08.101Z,22.65
2018-04-14T09:02:08.013Z,22.63
2018-04-14T09:03:07.969Z,22.53
2018-04-14T09:04:07.937Z,22.55
2018-04-14T09:05:07.884Z,22.51
2018-04-14T09:06:07.875Z,22.53
2018-04-14T09:07:07.802Z,22.68
2018-04-14T09:08:07.799Z,22.62
2018-04-14T09:09:07.747Z,22.65
2018-04-14T09:10:07.676Z,22.63
2018-04-14T09:11:07.635Z,22.65
2018-04-14T09:12:07.610Z,22.66
2018-04-14T09:13:07.594Z,22.62
2018-04-14T09:14:07.515Z,22.65
2018-04-14T09:15:07.472Z,22.66
2018-04-14T09:16:07.464Z,22.68
2018-04-14T09:17:07.392Z,22.62
2018-04-14T09:18:07.381Z,22.59
2018-04-14T09:19:07.333Z,22.68
2018-04-14T09:20:07.263Z,22.70
2018-04-14T09:21:07.229Z,22.63
2018-04-14T09:22:07.183Z,22.65
2018-04-14T09:23:07.143Z,22.65
2018-04-14T09:24:07.130Z,22.66
2018-04-14T09:25:07.059Z,22.65
2018-04-14T09:26:07.017Z,22.65
2018-04-14T09:27:06.975Z,22.63
2018-04-14T09:28:06.935Z,22.65
2018-04-14T09:29:06.933Z,22.68
2018-04-14T09:30:06.884Z,22.63
2018-04-14T09:31:07.197Z,22.73
2018-04-14T09:32:06.773Z,22.73
2018-04-14T09:33:06.733Z,22.69
2018-04-14T09:34:06.714Z,22.63
2018-04-14T09:35:06.696Z,22.62
2018-04-14T09:36:06.607Z,22.66
2018-04-14T09:37:06.601Z,22.66
2018-04-14T09:38:06.524Z,22.65
2018-04-14T09:39:06.484Z,22.69
2018-04-14T09:40:06.483Z,22.70
2018-04-14T09:41:06.440Z,22.73
2018-04-14T09:42:06.358Z,22.72
2018-04-14T09:43:06.320Z,22.72
2018-04-14T09:44:06.278Z,22.75
2018-04-14T09:45:06.243Z,22.70
2018-04-14T09:46:06.234Z,22.80
2018-04-14T09:47:06.158Z,22.72
2018-04-14T09:48:06.114Z,22.76
2018-04-14T09:49:06.073Z,22.80
2018-04-14T09:50:06.031Z,22.76
2018-04-14T09:51:06.020Z,22.75
2018-04-14T09:52:05.952Z,22.78
2018-04-14T09:53:05.908Z,22.87
2018-04-14T09:54:05.870Z,22.85
2018-04-14T09:55:05.825Z,22.75
2018-04-14T09:56:05.812Z,22.70
2018-04-14T09:57:05.757Z,22.76
2018-04-14T09:58:05.703Z,22.83
2018-04-14T09:59:05.664Z,22.76
2018-04-14T10:00:05.621Z,22.80
2018-04-14T10:01:05.618Z,22.87
2018-04-14T10:02:05.544Z,22.87
2018-04-14T10:03:05.534Z,22.90
2018-04-14T10:04:05.504Z,22.93
2018-04-14T10:05:05.413Z,22.93
2018-04-14T10:06:05.378Z,22.91
2018-04-14T10:07:05.363Z,23.00
2018-04-14T10:08:05.305Z,23.00
2018-04-14T10:09:05.304Z,22.96
2018-04-14T10:10:05.209Z,22.83
2018-04-14T10:11:05.169Z,22.68
2018-04-14T10:12:05.128Z,22.43
2018-04-14T10:13:05.084Z,22.50
2018-04-14T10:14:05.087Z,22.63
2018-04-14T10:15:05.007Z,22.63
2018-04-14T10:16:04.965Z,22.72
2018-04-14T10:17:04.919Z,22.85
2018-04-14T10:18:04.886Z,22.91
2018-04-14T10:19:04.873Z,22.93
2018-04-14T10:20:04.800Z,22.90
2018-04-14T10:21:04.793Z,22.87
2018-04-14T10:22:04.717Z,22.83
2018-04-14T10:23:04.680Z,22.83
2018-04-14T10:24:04.642Z,22.75
2018-04-14T10:25:04.605Z,22.76
2018-04-14T10:26:04.589Z,22.69
2018-04-14T10:27:04.547Z,22.65
2018-04-14T10:28:04.481Z,22.78
2018-04-14T10:29:04.439Z,22.80
2018-04-14T10:30:04.395Z,22.65
2018-04-14T10:31:04.393Z,22.63
2018-04-14T10:32:04.315Z,22.45
2018-04-14T10:33:04.303Z,22.41
2018-04-14T10:34:04.256Z,22.38
2018-04-14T10:35:04.196Z,22.20
2018-04-14T10:36:04.156Z,22.18
2018-04-14T10:37:04.122Z,22.17
2018-04-14T10:38:04.153Z,22.11
2018-04-14T10:39:04.036Z,22.10
2018-04-14T10:40:03.993Z,22.00
2018-04-14T10:41:03.989Z,22.10
2018-04-14T10:42:03.917Z,22.15
2018-04-14T10:43:04.034Z,22.23
2018-04-14T10:44:03.831Z,22.17
2018-04-14T10:45:03.798Z,22.20
2018-04-14T10:46:03.750Z,22.25
2018-04-14T10:47:03.713Z,22.35
2018-04-14T10:48:03.717Z,22.41
2018-04-14T10:49:03.629Z,22.51
2018-04-14T10:50:03.597Z,22.53
2018-04-14T10:51:03.554Z,22.57
2018-04-14T10:52:03.512Z,22.68
2018-04-14T10:53:03.510Z,22.75
2018-04-14T10:54:03.438Z,22.88
2018-04-14T10:55:03.402Z,22.90
2018-04-14T10:56:03.355Z,23.03
2018-04-14T10:57:03.305Z,23.05
2018-04-14T10:58:24.290Z,23.13
2018-04-14T10:59:03.230Z,23.13
2018-04-14T11:00:03.186Z,23.34
2018-04-14T11:01:03.148Z,23.18
2018-04-14T11:02:03.106Z,23.15
2018-04-14T11:03:03.099Z,23.15
2018-04-14T11:04:03.031Z,23.31
2018-04-14T11:05:02.982Z,23.23
2018-04-14T11:06:02.948Z,23.48
2018-04-14T11:07:02.941Z,23.66
2018-04-14T11:08:02.867Z,23.74
2018-04-14T11:09:02.873Z,23.84
2018-04-14T11:10:02.782Z,23.84
2018-04-14T11:11:02.754Z,23.99
2018-04-14T11:12:02.709Z,24.01
2018-04-14T11:13:02.661Z,24.08
2018-04-14T11:14:02.667Z,24.14
2018-04-14T11:15:02.580Z,24.16
2018-04-14T11:16:02.544Z,24.28
2018-04-14T11:17:02.504Z,24.36
2018-04-14T11:18:02.464Z,24.17
2018-04-14T11:19:02.467Z,24.24
2018-04-14T11:20:02.383Z,24.24
2018-04-14T11:21:02.343Z,24.39
2018-04-14T11:22:02.307Z,24.36
2018-04-14T11:23:02.268Z,24.54
2018-04-14T11:24:02.253Z,24.50
2018-04-14T11:25:02.227Z,24.40
2018-04-14T11:26:02.148Z,24.39
2018-04-14T11:27:02.102Z,24.63
2018-04-14T11:28:02.066Z,24.58
2018-04-14T11:29:02.027Z,24.60
2018-04-14T11:30:02.032Z,24.53
2018-04-14T11:31:01.954Z,18.10
2018-04-14T11:32:01.905Z,24.63
2018-04-14T11:33:01.865Z,24.73
2018-04-14T11:34:01.829Z,24.74
2018-04-14T11:35:01.816Z,24.70
2018-04-14T11:36:01.795Z,24.70
2018-04-14T11:37:01.705Z,24.85
2018-04-14T11:38:01.667Z,24.81
2018-04-14T11:39:01.628Z,24.85
2018-04-14T11:40:01.595Z,24.51
2018-04-14T11:41:01.580Z,24.47
2018-04-14T11:42:01.501Z,24.47
2018-04-14T11:43:01.462Z,24.32
2018-04-14T11:44:01.428Z,24.33
2018-04-14T11:45:01.380Z,24.32
2018-04-14T11:46:01.374Z,24.30
2018-04-14T11:47:01.305Z,24.28
2018-04-14T11:48:01.262Z,24.16
2018-04-14T11:49:01.225Z,24.14
2018-04-14T11:50:01.181Z,24.30
2018-04-14T11:51:01.182Z,24.16
2018-04-14T11:52:01.106Z,24.32
2018-04-14T11:53:01.060Z,24.13
2018-04-14T11:54:01.060Z,24.26
2018-04-14T11:55:00.989Z,24.16
2018-04-14T11:56:41.811Z,24.38
2018-04-14T11:57:41.734Z,30.24
2018-04-14T11:58:41.691Z,30.85
2018-04-14T11:59:41.649Z,32.83
2018-04-14T12:00:41.612Z,31.49
2018-04-14T12:01:41.598Z,30.61
2018-04-14T12:02:41.530Z,29.31
2018-04-14T12:03:41.572Z,28.32
2018-04-14T12:04:41.459Z,27.98
2018-04-14T12:05:41.411Z,27.07
2018-04-14T12:06:41.412Z,28.37
2018-04-14T12:07:41.345Z,28.48
2018-04-14T12:08:41.300Z,29.01
2018-04-14T12:09:41.264Z,29.26
2018-04-14T12:10:41.234Z,28.75
2018-04-14T12:11:41.218Z,27.55
2018-04-14T12:12:41.186Z,25.68
2018-04-14T12:13:41.117Z,23.12
2018-04-14T12:14:41.079Z,23.83
2018-04-14T12:15:41.041Z,25.11
2018-04-14T12:16:41.049Z,24.69
2018-04-14T12:17:41.000Z,23.47
2018-04-14T12:18:40.933Z,24.03
2018-04-14T12:19:40.930Z,22.68
2018-04-14T12:20:40.852Z,23.23
2018-04-14T12:21:40.818Z,24.54
2018-04-14T12:22:40.851Z,25.50
2018-04-14T12:23:40.738Z,24.14
2018-04-14T12:24:40.703Z,23.66
2018-04-14T12:25:40.661Z,24.02
2018-04-14T12:26:40.626Z,22.29
2018-04-14T12:27:40.615Z,22.06
2018-04-14T12:28:40.549Z,24.06
2018-04-14T12:29:40.505Z,24.55
2018-04-14T12:30:40.467Z,24.45
2018-04-14T12:31:40.462Z,24.81
2018-04-14T12:32:40.390Z,24.53
2018-04-14T12:33:40.360Z,21.72
2018-04-14T12:34:40.369Z,21.22
2018-04-14T12:35:40.277Z,21.50
2018-04-14T12:36:40.235Z,21.73
2018-04-14T12:37:40.226Z,21.15
2018-04-14T12:38:40.153Z,20.87
2018-04-14T12:39:40.119Z,21.20
2018-04-14T12:40:40.078Z,21.66
2018-04-14T12:41:40.033Z,21.76
2018-04-14T12:42:40.023Z,21.67
2018-04-14T12:43:39.949Z,21.43
2018-04-14T12:44:39.908Z,21.21
2018-04-14T12:45:39.880Z,20.78
2018-04-14T12:46:39.828Z,20.77
2018-04-14T12:47:39.817Z,20.55
2018-04-14T12:48:39.750Z,20.47
2018-04-14T12:49:39.701Z,20.56
2018-04-14T12:50:39.658Z,20.95
2018-04-14T12:51:39.618Z,20.87
2018-04-14T12:52:39.601Z,20.67